sensor_id;sensor_type;location;lat;lon;timestamp;P1;durP1;ratioP1;P2;durP2;ratioP2
79460;SDS011;68929;42.666;23.324;2023-04-03T00:02:11;6.25;;;3.40;;
79460;SDS011;68929;42.666;23.324;2023-04-03T00:04:36;4.82;;;3.00;;
79460;SDS011;68929;42.666;23.324;2023-04-03T00:07:02;4.72;;;3.40;;
79460;SDS011;68929;42.666;23.324;2023-04-03T00:09:27;4.80;;;3.42;;
79460;SDS011;68929;42.666;23.324;2023-04-03T00:11:52;3.88;;;3.25;;
79460;SDS011;68929;42.666;23.324;2023-04-03T00:14:18;4.15;;;3.45;;
79460;SDS011;68929;42.666;23.324;2023-04-03T00:16:43;4.82;;;3.53;;
79460;SDS011;68929;42.666;23.324;2023-04-03T00:19:08;7.35;;;4.80;;
79460;SDS011;68929;42.666;23.324;2023-04-03T00:21:36;7.20;;;5.50;;
79460;SDS011;68929;42.666;23.324;2023-04-03T00:24:02;12.07;;;5.95;;
79460;SDS011;68929;42.666;23.324;2023-04-03T00:26:27;7.35;;;5.38;;
79460;SDS011;68929;42.666;23.324;2023-04-03T00:28:53;10.88;;;5.82;;
79460;SDS011;68929;42.666;23.324;2023-04-03T00:31:18;9.20;;;5.28;;
79460;SDS011;68929;42.666;23.324;2023-04-03T00:33:43;9.68;;;5.68;;
79460;SDS011;68929;42.666;23.324;2023-04-03T00:36:09;7.95;;;5.10;;
79460;SDS011;68929;42.666;23.324;2023-04-03T00:38:35;9.73;;;5.43;;
79460;SDS011;68929;42.666;23.324;2023-04-03T00:41:01;7.43;;;5.85;;
79460;SDS011;68929;42.666;23.324;2023-04-03T00:43:27;8.27;;;5.53;;
79460;SDS011;68929;42.666;23.324;2023-04-03T00:45:53;6.53;;;5.25;;
79460;SDS011;68929;42.666;23.324;2023-04-03T00:48:21;7.70;;;5.68;;
79460;SDS011;68929;42.666;23.324;2023-04-03T00:50:50;9.93;;;6.10;;
79460;SDS011;68929;42.666;23.324;2023-04-03T00:53:18;6.88;;;5.03;;
79460;SDS011;68929;42.666;23.324;2023-04-03T00:55:48;7.45;;;4.65;;
79460;SDS011;68929;42.666;23.324;2023-04-03T00:58:15;7.05;;;5.05;;
79460;SDS011;68929;42.666;23.324;2023-04-03T01:00:44;6.95;;;5.07;;
79460;SDS011;68929;42.666;23.324;2023-04-03T01:03:16;9.38;;;5.47;;
79460;SDS011;68929;42.666;23.324;2023-04-03T01:05:42;8.95;;;5.65;;
79460;SDS011;68929;42.666;23.324;2023-04-03T01:08:07;7.93;;;5.40;;
79460;SDS011;68929;42.666;23.324;2023-04-03T01:10:33;8.07;;;4.03;;
79460;SDS011;68929;42.666;23.324;2023-04-03T01:12:58;5.30;;;3.00;;
79460;SDS011;68929;42.666;23.324;2023-04-03T01:15:25;5.57;;;3.80;;
79460;SDS011;68929;42.666;23.324;2023-04-03T01:17:56;4.50;;;3.58;;
79460;SDS011;68929;42.666;23.324;2023-04-03T01:25:35;5.00;;;4.03;;
79460;SDS011;68929;42.666;23.324;2023-04-03T01:28:28;5.97;;;3.42;;
79460;SDS011;68929;42.666;23.324;2023-04-03T01:33:34;5.95;;;4.25;;
79460;SDS011;68929;42.666;23.324;2023-04-03T01:36:00;7.13;;;4.15;;
79460;SDS011;68929;42.666;23.324;2023-04-03T01:38:26;5.53;;;4.43;;
79460;SDS011;68929;42.666;23.324;2023-04-03T01:40:52;9.60;;;4.82;;
79460;SDS011;68929;42.666;23.324;2023-04-03T01:43:17;7.43;;;4.40;;
79460;SDS011;68929;42.666;23.324;2023-04-03T01:45:43;9.80;;;3.97;;
79460;SDS011;68929;42.666;23.324;2023-04-03T01:48:08;4.82;;;3.70;;
79460;SDS011;68929;42.666;23.324;2023-04-03T01:50:33;4.63;;;3.50;;
79460;SDS011;68929;42.666;23.324;2023-04-03T01:52:59;5.95;;;3.70;;
79460;SDS011;68929;42.666;23.324;2023-04-03T01:55:24;8.50;;;3.58;;
79460;SDS011;68929;42.666;23.324;2023-04-03T01:57:50;4.57;;;3.20;;
79460;SDS011;68929;42.666;23.324;2023-04-03T02:00:15;4.30;;;3.35;;
79460;SDS011;68929;42.666;23.324;2023-04-03T02:02:41;7.10;;;3.70;;
79460;SDS011;68929;42.666;23.324;2023-04-03T02:05:07;5.50;;;3.38;;
79460;SDS011;68929;42.666;23.324;2023-04-03T02:07:32;5.22;;;3.88;;
79460;SDS011;68929;42.666;23.324;2023-04-03T02:09:58;7.57;;;3.60;;
79460;SDS011;68929;42.666;23.324;2023-04-03T02:12:23;5.25;;;3.63;;
79460;SDS011;68929;42.666;23.324;2023-04-03T02:14:49;5.15;;;3.70;;
79460;SDS011;68929;42.666;23.324;2023-04-03T02:17:14;3.80;;;3.30;;
79460;SDS011;68929;42.666;23.324;2023-04-03T02:19:40;6.07;;;3.63;;
79460;SDS011;68929;42.666;23.324;2023-04-03T02:22:05;4.97;;;4.00;;
79460;SDS011;68929;42.666;23.324;2023-04-03T02:24:31;7.90;;;4.15;;
79460;SDS011;68929;42.666;23.324;2023-04-03T02:26:57;6.57;;;4.32;;
79460;SDS011;68929;42.666;23.324;2023-04-03T02:29:23;7.28;;;4.18;;
79460;SDS011;68929;42.666;23.324;2023-04-03T02:31:48;7.35;;;4.38;;
79460;SDS011;68929;42.666;23.324;2023-04-03T02:34:15;6.80;;;4.07;;
79460;SDS011;68929;42.666;23.324;2023-04-03T02:36:40;7.07;;;4.75;;
79460;SDS011;68929;42.666;23.324;2023-04-03T02:39:06;6.88;;;4.82;;
79460;SDS011;68929;42.666;23.324;2023-04-03T02:41:31;8.18;;;5.40;;
79460;SDS011;68929;42.666;23.324;2023-04-03T02:44:03;8.05;;;5.13;;
79460;SDS011;68929;42.666;23.324;2023-04-03T02:46:30;7.97;;;5.70;;
79460;SDS011;68929;42.666;23.324;2023-04-03T02:48:55;12.73;;;5.55;;
79460;SDS011;68929;42.666;23.324;2023-04-03T02:51:21;8.80;;;5.32;;
79460;SDS011;68929;42.666;23.324;2023-04-03T02:53:47;10.00;;;4.90;;
79460;SDS011;68929;42.666;23.324;2023-04-03T02:56:13;10.93;;;5.38;;
79460;SDS011;68929;42.666;23.324;2023-04-03T02:58:39;10.35;;;4.93;;
79460;SDS011;68929;42.666;23.324;2023-04-03T03:01:04;9.38;;;4.93;;
79460;SDS011;68929;42.666;23.324;2023-04-03T03:03:29;7.93;;;4.78;;
79460;SDS011;68929;42.666;23.324;2023-04-03T03:06:05;10.68;;;5.00;;
79460;SDS011;68929;42.666;23.324;2023-04-03T03:08:41;9.52;;;5.60;;
79460;SDS011;68929;42.666;23.324;2023-04-03T03:11:06;8.80;;;5.70;;
79460;SDS011;68929;42.666;23.324;2023-04-03T03:13:32;15.05;;;6.68;;
79460;SDS011;68929;42.666;23.324;2023-04-03T03:15:57;11.52;;;5.78;;
79460;SDS011;68929;42.666;23.324;2023-04-03T03:18:23;8.95;;;5.10;;
79460;SDS011;68929;42.666;23.324;2023-04-03T03:20:52;8.85;;;6.05;;
79460;SDS011;68929;42.666;23.324;2023-04-03T03:23:22;6.82;;;5.00;;
79460;SDS011;68929;42.666;23.324;2023-04-03T03:25:54;10.70;;;6.95;;
79460;SDS011;68929;42.666;23.324;2023-04-03T03:28:23;6.03;;;4.75;;
79460;SDS011;68929;42.666;23.324;2023-04-03T03:30:49;9.63;;;7.00;;
79460;SDS011;68929;42.666;23.324;2023-04-03T03:33:15;9.63;;;6.93;;
79460;SDS011;68929;42.666;23.324;2023-04-03T03:35:42;9.13;;;6.05;;
79460;SDS011;68929;42.666;23.324;2023-04-03T03:38:08;13.27;;;7.65;;
79460;SDS011;68929;42.666;23.324;2023-04-03T03:40:33;8.23;;;5.43;;
79460;SDS011;68929;42.666;23.324;2023-04-03T03:42:59;9.40;;;5.30;;
79460;SDS011;68929;42.666;23.324;2023-04-03T03:45:24;13.63;;;6.03;;
79460;SDS011;68929;42.666;23.324;2023-04-03T03:47:50;12.48;;;6.20;;
79460;SDS011;68929;42.666;23.324;2023-04-03T03:50:15;8.57;;;5.20;;
79460;SDS011;68929;42.666;23.324;2023-04-03T03:52:41;8.63;;;5.55;;
79460;SDS011;68929;42.666;23.324;2023-04-03T03:55:06;8.65;;;6.18;;
79460;SDS011;68929;42.666;23.324;2023-04-03T03:57:32;11.95;;;7.25;;
79460;SDS011;68929;42.666;23.324;2023-04-03T03:59:57;11.95;;;7.28;;
79460;SDS011;68929;42.666;23.324;2023-04-03T04:02:23;9.82;;;6.85;;
79460;SDS011;68929;42.666;23.324;2023-04-03T04:04:48;10.35;;;6.35;;
79460;SDS011;68929;42.666;23.324;2023-04-03T04:07:14;15.73;;;7.72;;
79460;SDS011;68929;42.666;23.324;2023-04-03T04:09:39;9.07;;;6.22;;
79460;SDS011;68929;42.666;23.324;2023-04-03T04:12:05;7.30;;;5.25;;
79460;SDS011;68929;42.666;23.324;2023-04-03T04:14:30;10.18;;;7.38;;
79460;SDS011;68929;42.666;23.324;2023-04-03T04:16:56;14.93;;;7.85;;
79460;SDS011;68929;42.666;23.324;2023-04-03T04:19:21;14.10;;;7.78;;
79460;SDS011;68929;42.666;23.324;2023-04-03T04:21:47;11.85;;;7.45;;
79460;SDS011;68929;42.666;23.324;2023-04-03T04:24:12;14.40;;;7.88;;
79460;SDS011;68929;42.666;23.324;2023-04-03T04:26:37;15.88;;;7.88;;
79460;SDS011;68929;42.666;23.324;2023-04-03T04:29:03;12.75;;;8.10;;
79460;SDS011;68929;42.666;23.324;2023-04-03T04:31:28;11.00;;;7.30;;
79460;SDS011;68929;42.666;23.324;2023-04-03T04:33:54;19.00;;;7.72;;
79460;SDS011;68929;42.666;23.324;2023-04-03T04:36:19;13.02;;;7.97;;
79460;SDS011;68929;42.666;23.324;2023-04-03T04:38:45;12.13;;;7.18;;
79460;SDS011;68929;42.666;23.324;2023-04-03T04:41:10;15.45;;;8.23;;
79460;SDS011;68929;42.666;23.324;2023-04-03T04:43:36;12.52;;;7.82;;
79460;SDS011;68929;42.666;23.324;2023-04-03T04:46:03;22.98;;;8.98;;
79460;SDS011;68929;42.666;23.324;2023-04-03T04:48:30;20.77;;;10.00;;
79460;SDS011;68929;42.666;23.324;2023-04-03T04:50:56;20.73;;;8.85;;
79460;SDS011;68929;42.666;23.324;2023-04-03T04:53:21;13.68;;;8.35;;
79460;SDS011;68929;42.666;23.324;2023-04-03T04:55:47;19.02;;;8.90;;
79460;SDS011;68929;42.666;23.324;2023-04-03T04:58:14;17.08;;;8.50;;
79460;SDS011;68929;42.666;23.324;2023-04-03T05:00:40;23.08;;;8.88;;
79460;SDS011;68929;42.666;23.324;2023-04-03T05:03:05;26.00;;;9.20;;
79460;SDS011;68929;42.666;23.324;2023-04-03T05:05:31;23.50;;;9.80;;
79460;SDS011;68929;42.666;23.324;2023-04-03T05:07:56;16.60;;;9.10;;
79460;SDS011;68929;42.666;23.324;2023-04-03T05:10:22;19.67;;;9.15;;
79460;SDS011;68929;42.666;23.324;2023-04-03T05:12:53;18.27;;;9.30;;
79460;SDS011;68929;42.666;23.324;2023-04-03T05:15:19;12.93;;;7.70;;
79460;SDS011;68929;42.666;23.324;2023-04-03T05:17:50;15.32;;;7.78;;
79460;SDS011;68929;42.666;23.324;2023-04-03T05:20:22;20.73;;;8.73;;
79460;SDS011;68929;42.666;23.324;2023-04-03T05:22:50;17.17;;;8.23;;
79460;SDS011;68929;42.666;23.324;2023-04-03T05:25:15;15.60;;;6.82;;
79460;SDS011;68929;42.666;23.324;2023-04-03T05:27:41;20.02;;;9.32;;
79460;SDS011;68929;42.666;23.324;2023-04-03T05:30:06;20.17;;;9.13;;
79460;SDS011;68929;42.666;23.324;2023-04-03T05:32:37;14.13;;;8.30;;
79460;SDS011;68929;42.666;23.324;2023-04-03T05:35:07;26.17;;;9.65;;
79460;SDS011;68929;42.666;23.324;2023-04-03T05:37:34;23.38;;;9.30;;
79460;SDS011;68929;42.666;23.324;2023-04-03T05:39:59;25.50;;;10.60;;
79460;SDS011;68929;42.666;23.324;2023-04-03T05:42:26;30.75;;;12.15;;
79460;SDS011;68929;42.666;23.324;2023-04-03T05:44:52;22.00;;;10.27;;
79460;SDS011;68929;42.666;23.324;2023-04-03T05:47:18;23.10;;;10.88;;
79460;SDS011;68929;42.666;23.324;2023-04-03T05:49:43;15.00;;;7.85;;
79460;SDS011;68929;42.666;23.324;2023-04-03T05:54:50;25.30;;;10.70;;
79460;SDS011;68929;42.666;23.324;2023-04-03T05:57:29;24.05;;;11.38;;
79460;SDS011;68929;42.666;23.324;2023-04-03T05:59:58;29.90;;;11.77;;
79460;SDS011;68929;42.666;23.324;2023-04-03T06:02:23;29.15;;;12.98;;
79460;SDS011;68929;42.666;23.324;2023-04-03T06:04:50;29.30;;;12.95;;
79460;SDS011;68929;42.666;23.324;2023-04-03T06:07:24;27.52;;;14.23;;
79460;SDS011;68929;42.666;23.324;2023-04-03T06:09:55;30.73;;;12.60;;
79460;SDS011;68929;42.666;23.324;2023-04-03T06:12:22;21.50;;;10.15;;
79460;SDS011;68929;42.666;23.324;2023-04-03T06:14:48;20.70;;;14.23;;
79460;SDS011;68929;42.666;23.324;2023-04-03T06:17:17;28.20;;;13.80;;
79460;SDS011;68929;42.666;23.324;2023-04-03T06:19:47;25.67;;;15.52;;
79460;SDS011;68929;42.666;23.324;2023-04-03T06:22:12;33.38;;;13.50;;
79460;SDS011;68929;42.666;23.324;2023-04-03T06:24:38;39.03;;;15.45;;
79460;SDS011;68929;42.666;23.324;2023-04-03T06:27:05;31.20;;;14.50;;
79460;SDS011;68929;42.666;23.324;2023-04-03T06:29:30;33.35;;;16.17;;
79460;SDS011;68929;42.666;23.324;2023-04-03T06:31:56;31.17;;;15.20;;
79460;SDS011;68929;42.666;23.324;2023-04-03T06:34:21;28.92;;;15.57;;
79460;SDS011;68929;42.666;23.324;2023-04-03T06:36:48;23.45;;;11.05;;
79460;SDS011;68929;42.666;23.324;2023-04-03T06:39:16;18.45;;;11.15;;
79460;SDS011;68929;42.666;23.324;2023-04-03T06:41:50;21.40;;;11.60;;
79460;SDS011;68929;42.666;23.324;2023-04-03T06:44:23;16.20;;;10.80;;
79460;SDS011;68929;42.666;23.324;2023-04-03T06:46:50;18.02;;;10.93;;
79460;SDS011;68929;42.666;23.324;2023-04-03T06:49:16;15.32;;;9.02;;
79460;SDS011;68929;42.666;23.324;2023-04-03T06:51:42;17.73;;;10.13;;
79460;SDS011;68929;42.666;23.324;2023-04-03T06:54:12;16.25;;;10.32;;
79460;SDS011;68929;42.666;23.324;2023-04-03T06:56:50;20.90;;;11.48;;
79460;SDS011;68929;42.666;23.324;2023-04-03T06:59:16;32.60;;;14.52;;
79460;SDS011;68929;42.666;23.324;2023-04-03T07:01:42;32.40;;;15.93;;
79460;SDS011;68929;42.666;23.324;2023-04-03T07:04:13;40.17;;;17.13;;
79460;SDS011;68929;42.666;23.324;2023-04-03T07:06:43;27.50;;;13.43;;
79460;SDS011;68929;42.666;23.324;2023-04-03T07:09:09;34.53;;;15.75;;
79460;SDS011;68929;42.666;23.324;2023-04-03T07:11:35;32.85;;;15.32;;
79460;SDS011;68929;42.666;23.324;2023-04-03T07:14:06;26.73;;;14.52;;
79460;SDS011;68929;42.666;23.324;2023-04-03T07:16:37;23.25;;;12.35;;
79460;SDS011;68929;42.666;23.324;2023-04-03T07:19:07;25.73;;;13.80;;
79460;SDS011;68929;42.666;23.324;2023-04-03T07:21:33;7.65;;;6.50;;
79460;SDS011;68929;42.666;23.324;2023-04-03T07:23:59;10.65;;;6.95;;
79460;SDS011;68929;42.666;23.324;2023-04-03T07:26:28;13.38;;;7.22;;
79460;SDS011;68929;42.666;23.324;2023-04-03T07:28:59;11.73;;;7.35;;
79460;SDS011;68929;42.666;23.324;2023-04-03T07:31:24;11.25;;;7.15;;
79460;SDS011;68929;42.666;23.324;2023-04-03T07:33:50;16.45;;;7.35;;
79460;SDS011;68929;42.666;23.324;2023-04-03T07:36:19;16.27;;;8.20;;
79460;SDS011;68929;42.666;23.324;2023-04-03T07:38:58;15.07;;;8.10;;
79460;SDS011;68929;42.666;23.324;2023-04-03T07:41:29;12.32;;;8.55;;
79460;SDS011;68929;42.666;23.324;2023-04-03T07:43:55;12.43;;;7.47;;
79460;SDS011;68929;42.666;23.324;2023-04-03T07:46:21;16.70;;;9.32;;
79460;SDS011;68929;42.666;23.324;2023-04-03T07:48:49;11.48;;;8.45;;
79460;SDS011;68929;42.666;23.324;2023-04-03T07:51:18;11.30;;;8.27;;
79460;SDS011;68929;42.666;23.324;2023-04-03T07:53:49;18.75;;;10.23;;
79460;SDS011;68929;42.666;23.324;2023-04-03T07:56:14;14.02;;;9.32;;
79460;SDS011;68929;42.666;23.324;2023-04-03T07:58:45;16.05;;;10.77;;
79460;SDS011;68929;42.666;23.324;2023-04-03T08:01:20;16.55;;;10.38;;
79460;SDS011;68929;42.666;23.324;2023-04-03T08:03:49;21.08;;;10.38;;
79460;SDS011;68929;42.666;23.324;2023-04-03T08:06:18;21.35;;;11.65;;
79460;SDS011;68929;42.666;23.324;2023-04-03T08:08:43;23.63;;;12.63;;
79460;SDS011;68929;42.666;23.324;2023-04-03T08:11:14;17.65;;;9.65;;
79460;SDS011;68929;42.666;23.324;2023-04-03T08:13:39;20.02;;;13.05;;
79460;SDS011;68929;42.666;23.324;2023-04-03T08:16:18;19.48;;;12.13;;
79460;SDS011;68929;42.666;23.324;2023-04-03T08:18:53;27.33;;;13.93;;
79460;SDS011;68929;42.666;23.324;2023-04-03T08:21:27;28.65;;;16.30;;
79460;SDS011;68929;42.666;23.324;2023-04-03T08:23:56;17.55;;;11.73;;
79460;SDS011;68929;42.666;23.324;2023-04-03T08:26:26;24.35;;;14.32;;
79460;SDS011;68929;42.666;23.324;2023-04-03T08:28:52;22.23;;;14.35;;
79460;SDS011;68929;42.666;23.324;2023-04-03T08:31:18;23.85;;;13.13;;
79460;SDS011;68929;42.666;23.324;2023-04-03T08:33:45;34.00;;;20.73;;
79460;SDS011;68929;42.666;23.324;2023-04-03T08:36:28;30.40;;;17.63;;
79460;SDS011;68929;42.666;23.324;2023-04-03T08:38:55;24.63;;;16.92;;
79460;SDS011;68929;42.666;23.324;2023-04-03T08:44:11;18.98;;;14.73;;
79460;SDS011;68929;42.666;23.324;2023-04-03T08:52:09;19.98;;;12.73;;
79460;SDS011;68929;42.666;23.324;2023-04-03T08:57:14;18.75;;;12.75;;
79460;SDS011;68929;42.666;23.324;2023-04-03T08:59:41;28.25;;;17.58;;
79460;SDS011;68929;42.666;23.324;2023-04-03T09:02:21;32.15;;;19.13;;
79460;SDS011;68929;42.666;23.324;2023-04-03T09:04:55;25.02;;;14.15;;
79460;SDS011;68929;42.666;23.324;2023-04-03T09:07:35;22.38;;;13.10;;
79460;SDS011;68929;42.666;23.324;2023-04-03T09:10:08;15.13;;;9.98;;
79460;SDS011;68929;42.666;23.324;2023-04-03T09:15:23;14.13;;;10.65;;
79460;SDS011;68929;42.666;23.324;2023-04-03T09:17:59;18.63;;;10.85;;
79460;SDS011;68929;42.666;23.324;2023-04-03T09:26:19;22.60;;;11.68;;
79460;SDS011;68929;42.666;23.324;2023-04-03T09:28:55;22.83;;;11.60;;
79460;SDS011;68929;42.666;23.324;2023-04-03T09:31:36;21.63;;;13.10;;
79460;SDS011;68929;42.666;23.324;2023-04-03T09:37:00;14.73;;;9.18;;
79460;SDS011;68929;42.666;23.324;2023-04-03T09:42:23;13.50;;;9.70;;
79460;SDS011;68929;42.666;23.324;2023-04-03T09:48:12;10.05;;;6.28;;
79460;SDS011;68929;42.666;23.324;2023-04-03T09:53:32;7.43;;;4.93;;
79460;SDS011;68929;42.666;23.324;2023-04-03T09:58:51;11.10;;;5.97;;
79460;SDS011;68929;42.666;23.324;2023-04-03T10:01:37;8.73;;;3.97;;
79460;SDS011;68929;42.666;23.324;2023-04-03T10:04:15;7.00;;;4.85;;
79460;SDS011;68929;42.666;23.324;2023-04-03T10:09:21;8.63;;;4.90;;
79460;SDS011;68929;42.666;23.324;2023-04-03T10:12:14;8.38;;;5.22;;
79460;SDS011;68929;42.666;23.324;2023-04-03T10:20:36;8.45;;;4.53;;
79460;SDS011;68929;42.666;23.324;2023-04-03T10:23:33;7.43;;;5.60;;
79460;SDS011;68929;42.666;23.324;2023-04-03T10:38:13;14.43;;;7.93;;
79460;SDS011;68929;42.666;23.324;2023-04-03T10:44:20;8.63;;;4.90;;
79460;SDS011;68929;42.666;23.324;2023-04-03T10:58:53;5.43;;;3.50;;
79460;SDS011;68929;42.666;23.324;2023-04-03T11:01:31;5.60;;;3.88;;
79460;SDS011;68929;42.666;23.324;2023-04-03T11:04:22;8.02;;;4.15;;
79460;SDS011;68929;42.666;23.324;2023-04-03T11:06:57;5.25;;;3.35;;
79460;SDS011;68929;42.666;23.324;2023-04-03T11:12:04;4.60;;;3.00;;
79460;SDS011;68929;42.666;23.324;2023-04-03T11:14:35;4.60;;;3.30;;
79460;SDS011;68929;42.666;23.324;2023-04-03T11:22:47;3.47;;;3.17;;
79460;SDS011;68929;42.666;23.324;2023-04-03T11:25:25;5.93;;;3.27;;
79460;SDS011;68929;42.666;23.324;2023-04-03T11:28:00;3.70;;;3.08;;
79460;SDS011;68929;42.666;23.324;2023-04-03T11:36:32;7.05;;;4.13;;
79460;SDS011;68929;42.666;23.324;2023-04-03T11:39:24;6.28;;;4.20;;
79460;SDS011;68929;42.666;23.324;2023-04-03T11:41:50;8.25;;;3.78;;
79460;SDS011;68929;42.666;23.324;2023-04-03T11:47:12;4.60;;;3.38;;
79460;SDS011;68929;42.666;23.324;2023-04-03T11:50:30;5.47;;;3.75;;
79460;SDS011;68929;42.666;23.324;2023-04-03T12:24:27;8.02;;;4.57;;
79460;SDS011;68929;42.666;23.324;2023-04-03T12:27:36;5.60;;;4.20;;
79460;SDS011;68929;42.666;23.324;2023-04-03T12:35:29;5.93;;;4.47;;
79460;SDS011;68929;42.666;23.324;2023-04-03T12:38:14;7.68;;;3.88;;
79460;SDS011;68929;42.666;23.324;2023-04-03T12:46:34;5.57;;;4.03;;
79460;SDS011;68929;42.666;23.324;2023-04-03T12:51:56;7.13;;;4.22;;
79460;SDS011;68929;42.666;23.324;2023-04-03T12:54:40;5.50;;;4.10;;
79460;SDS011;68929;42.666;23.324;2023-04-03T12:57:11;7.38;;;4.43;;
79460;SDS011;68929;42.666;23.324;2023-04-03T12:59:48;6.18;;;4.97;;
79460;SDS011;68929;42.666;23.324;2023-04-03T13:02:20;5.20;;;4.20;;
79460;SDS011;68929;42.666;23.324;2023-04-03T13:04:54;10.35;;;4.75;;
79460;SDS011;68929;42.666;23.324;2023-04-03T13:07:37;6.88;;;4.43;;
79460;SDS011;68929;42.666;23.324;2023-04-03T13:12:55;6.68;;;4.00;;
79460;SDS011;68929;42.666;23.324;2023-04-03T13:17:49;8.68;;;5.15;;
79460;SDS011;68929;42.666;23.324;2023-04-03T13:20:19;11.57;;;5.68;;
79460;SDS011;68929;42.666;23.324;2023-04-03T13:22:48;5.72;;;4.43;;
79460;SDS011;68929;42.666;23.324;2023-04-03T13:25:29;5.95;;;5.28;;
79460;SDS011;68929;42.666;23.324;2023-04-03T13:27:58;6.97;;;5.45;;
79460;SDS011;68929;42.666;23.324;2023-04-03T13:30:29;6.78;;;5.45;;
79460;SDS011;68929;42.666;23.324;2023-04-03T13:32:58;10.50;;;6.20;;
79460;SDS011;68929;42.666;23.324;2023-04-03T13:35:27;11.35;;;5.63;;
79460;SDS011;68929;42.666;23.324;2023-04-03T13:38:04;9.93;;;6.10;;
79460;SDS011;68929;42.666;23.324;2023-04-03T13:41:04;9.20;;;6.15;;
79460;SDS011;68929;42.666;23.324;2023-04-03T13:43:47;5.63;;;4.85;;
79460;SDS011;68929;42.666;23.324;2023-04-03T13:48:42;9.32;;;6.85;;
79460;SDS011;68929;42.666;23.324;2023-04-03T13:51:17;7.57;;;6.70;;
79460;SDS011;68929;42.666;23.324;2023-04-03T13:53:58;8.60;;;7.45;;
79460;SDS011;68929;42.666;23.324;2023-04-03T13:56:36;8.18;;;6.13;;
79460;SDS011;68929;42.666;23.324;2023-04-03T14:04:30;7.47;;;6.43;;
79460;SDS011;68929;42.666;23.324;2023-04-03T14:07:11;6.35;;;5.25;;
79460;SDS011;68929;42.666;23.324;2023-04-03T14:09:37;5.30;;;4.80;;
79460;SDS011;68929;42.666;23.324;2023-04-03T14:12:45;8.07;;;4.85;;
79460;SDS011;68929;42.666;23.324;2023-04-03T14:15:01;7.25;;;5.68;;
79460;SDS011;68929;42.666;23.324;2023-04-03T14:17:27;9.07;;;5.85;;
79460;SDS011;68929;42.666;23.324;2023-04-03T14:19:54;6.68;;;6.00;;
79460;SDS011;68929;42.666;23.324;2023-04-03T14:24:51;7.60;;;5.22;;
79460;SDS011;68929;42.666;23.324;2023-04-03T14:27:22;6.47;;;5.85;;
79460;SDS011;68929;42.666;23.324;2023-04-03T14:29:54;8.13;;;5.78;;
79460;SDS011;68929;42.666;23.324;2023-04-03T14:32:23;10.15;;;6.07;;
79460;SDS011;68929;42.666;23.324;2023-04-03T14:34:51;7.53;;;6.63;;
79460;SDS011;68929;42.666;23.324;2023-04-03T14:37:27;7.40;;;6.63;;
79460;SDS011;68929;42.666;23.324;2023-04-03T14:39:54;8.65;;;6.35;;
79460;SDS011;68929;42.666;23.324;2023-04-03T14:42:23;9.80;;;6.60;;
79460;SDS011;68929;42.666;23.324;2023-04-03T14:44:56;9.30;;;5.65;;
79460;SDS011;68929;42.666;23.324;2023-04-03T14:47:24;6.82;;;6.10;;
79460;SDS011;68929;42.666;23.324;2023-04-03T14:49:52;6.18;;;5.57;;
79460;SDS011;68929;42.666;23.324;2023-04-03T14:52:19;5.82;;;4.72;;
79460;SDS011;68929;42.666;23.324;2023-04-03T14:54:45;8.70;;;5.18;;
79460;SDS011;68929;42.666;23.324;2023-04-03T14:57:11;5.90;;;5.03;;
79460;SDS011;68929;42.666;23.324;2023-04-03T14:59:40;6.63;;;5.70;;
79460;SDS011;68929;42.666;23.324;2023-04-03T15:04:59;7.22;;;4.20;;
79460;SDS011;68929;42.666;23.324;2023-04-03T15:07:28;6.13;;;4.65;;
79460;SDS011;68929;42.666;23.324;2023-04-03T15:09:57;5.30;;;3.97;;
79460;SDS011;68929;42.666;23.324;2023-04-03T15:12:26;6.90;;;4.68;;
79460;SDS011;68929;42.666;23.324;2023-04-03T15:14:51;6.55;;;4.55;;
79460;SDS011;68929;42.666;23.324;2023-04-03T15:17:18;4.78;;;4.18;;
79460;SDS011;68929;42.666;23.324;2023-04-03T15:19:46;6.38;;;3.70;;
79460;SDS011;68929;42.666;23.324;2023-04-03T15:22:16;3.83;;;3.42;;
79460;SDS011;68929;42.666;23.324;2023-04-03T15:27:09;5.90;;;4.22;;
79460;SDS011;68929;42.666;23.324;2023-04-03T15:29:36;8.15;;;4.32;;
79460;SDS011;68929;42.666;23.324;2023-04-03T15:32:02;7.05;;;4.13;;
79460;SDS011;68929;42.666;23.324;2023-04-03T15:34:28;6.75;;;4.25;;
79460;SDS011;68929;42.666;23.324;2023-04-03T15:36:58;4.80;;;3.90;;
79460;SDS011;68929;42.666;23.324;2023-04-03T15:39:27;4.82;;;3.70;;
79460;SDS011;68929;42.666;23.324;2023-04-03T15:41:52;6.47;;;4.00;;
79460;SDS011;68929;42.666;23.324;2023-04-03T15:44:18;4.70;;;3.65;;
79460;SDS011;68929;42.666;23.324;2023-04-03T15:46:49;4.13;;;3.72;;
79460;SDS011;68929;42.666;23.324;2023-04-03T15:49:16;3.95;;;3.40;;
79460;SDS011;68929;42.666;23.324;2023-04-03T15:51:46;7.15;;;3.83;;
79460;SDS011;68929;42.666;23.324;2023-04-03T15:54:11;4.45;;;3.17;;
79460;SDS011;68929;42.666;23.324;2023-04-03T15:56:37;3.78;;;3.30;;
79460;SDS011;68929;42.666;23.324;2023-04-03T15:59:02;4.10;;;3.22;;
79460;SDS011;68929;42.666;23.324;2023-04-03T16:01:28;4.43;;;3.20;;
79460;SDS011;68929;42.666;23.324;2023-04-03T16:03:58;4.97;;;3.55;;
79460;SDS011;68929;42.666;23.324;2023-04-03T16:06:28;4.63;;;3.58;;
79460;SDS011;68929;42.666;23.324;2023-04-03T16:09:04;6.75;;;3.83;;
79460;SDS011;68929;42.666;23.324;2023-04-03T16:11:34;6.28;;;3.88;;
79460;SDS011;68929;42.666;23.324;2023-04-03T16:14:05;5.80;;;3.95;;
79460;SDS011;68929;42.666;23.324;2023-04-03T16:16:38;3.13;;;2.80;;
79460;SDS011;68929;42.666;23.324;2023-04-03T16:19:07;4.03;;;3.60;;
79460;SDS011;68929;42.666;23.324;2023-04-03T16:21:33;5.47;;;3.80;;
79460;SDS011;68929;42.666;23.324;2023-04-03T16:23:59;4.50;;;4.07;;
79460;SDS011;68929;42.666;23.324;2023-04-03T16:26:26;4.90;;;3.47;;
79460;SDS011;68929;42.666;23.324;2023-04-03T16:28:52;7.07;;;4.90;;
79460;SDS011;68929;42.666;23.324;2023-04-03T16:31:18;5.63;;;4.70;;
79460;SDS011;68929;42.666;23.324;2023-04-03T16:33:44;5.13;;;4.35;;
79460;SDS011;68929;42.666;23.324;2023-04-03T16:36:09;5.35;;;4.20;;
79460;SDS011;68929;42.666;23.324;2023-04-03T16:38:35;4.47;;;4.07;;
79460;SDS011;68929;42.666;23.324;2023-04-03T16:41:01;4.57;;;3.75;;
79460;SDS011;68929;42.666;23.324;2023-04-03T16:43:29;4.40;;;3.30;;
79460;SDS011;68929;42.666;23.324;2023-04-03T16:45:55;4.25;;;3.80;;
79460;SDS011;68929;42.666;23.324;2023-04-03T16:48:21;5.15;;;3.50;;
79460;SDS011;68929;42.666;23.324;2023-04-03T16:50:47;4.03;;;3.47;;
79460;SDS011;68929;42.666;23.324;2023-04-03T16:53:14;5.22;;;4.07;;
79460;SDS011;68929;42.666;23.324;2023-04-03T16:55:40;4.57;;;3.47;;
79460;SDS011;68929;42.666;23.324;2023-04-03T16:58:05;4.28;;;3.40;;
79460;SDS011;68929;42.666;23.324;2023-04-03T17:00:35;5.22;;;3.33;;
79460;SDS011;68929;42.666;23.324;2023-04-03T17:03:01;3.63;;;3.28;;
79460;SDS011;68929;42.666;23.324;2023-04-03T17:05:26;3.47;;;3.15;;
79460;SDS011;68929;42.666;23.324;2023-04-03T17:07:52;4.45;;;3.15;;
79460;SDS011;68929;42.666;23.324;2023-04-03T17:10:17;4.68;;;3.30;;
79460;SDS011;68929;42.666;23.324;2023-04-03T17:12:43;7.03;;;3.90;;
79460;SDS011;68929;42.666;23.324;2023-04-03T17:15:13;5.32;;;3.80;;
79460;SDS011;68929;42.666;23.324;2023-04-03T17:17:39;5.72;;;4.22;;
79460;SDS011;68929;42.666;23.324;2023-04-03T17:20:05;5.50;;;3.88;;
79460;SDS011;68929;42.666;23.324;2023-04-03T17:22:31;8.43;;;4.13;;